N853CM KORF-KCHS
Flight info
| Callsign | N853CM |
|---|---|
| Flight time | 1h 28m |
| Altitude | 30000 |
| Route | SWOPE1 JOHAR AMYLU AMYLU3 |
| Aircraft | SF50/L-BDGRSWY/LB2U2 |
Departure
| Time | 2026-05-05 17:16 |
|---|---|
| Airport | Norfolk International Airport (KORF) |
Arrival
| Time | 2026-05-05 18:44 |
|---|---|
| Airport | Charleston International Airport (KCHS) |
| Time | Latitude | Longitude | Altitude | Speed | Heading |
|---|---|---|---|---|---|
| 2026-05-05 17:01 | 36.88687 | -76.20156 | -3 ft | 0 kts | 213° |
| 2026-05-05 17:05 | 36.88691 | -76.20157 | -3 ft | 0 kts | 34° |
| 2026-05-05 17:05 | 36.88699 | -76.20155 | -3 ft | 2 kts | 346° |
| 2026-05-05 17:06 | 36.88703 | -76.20156 | -3 ft | 2 kts | 339° |
| 2026-05-05 17:06 | 36.88764 | -76.20129 | -3 ft | 14 kts | 40° |
| 2026-05-05 17:06 | 36.88817 | -76.20056 | -3 ft | 0 kts | 68° |
| 2026-05-05 17:07 | 36.88818 | -76.20054 | -3 ft | 1 kts | 68° |
| 2026-05-05 17:07 | 36.88833 | -76.19996 | -1 ft | 12 kts | 40° |
| 2026-05-05 17:07 | 36.88866 | -76.19994 | 2 ft | 0 kts | 318° |
| 2026-05-05 17:07 | 36.88853 | -76.20020 | 0 ft | 14 kts | 239° |
| 2026-05-05 17:08 | 36.88820 | -76.20167 | -3 ft | 22 kts | 288° |
| 2026-05-05 17:08 | 36.88878 | -76.20378 | -3 ft | 29 kts | 287° |
| 2026-05-05 17:08 | 36.88830 | -76.20581 | -2 ft | 30 kts | 220° |
| 2026-05-05 17:08 | 36.88678 | -76.20750 | -3 ft | 16 kts | 216° |
| 2026-05-05 17:09 | 36.88669 | -76.20758 | -3 ft | 0 kts | 210° |
| 2026-05-05 17:09 | 36.88674 | -76.20759 | -3 ft | 3 kts | 37° |
| 2026-05-05 17:09 | 36.88712 | -76.20715 | -3 ft | 12 kts | 43° |
| 2026-05-05 17:09 | 36.88783 | -76.20638 | -2 ft | 15 kts | 42° |
| 2026-05-05 17:10 | 36.88874 | -76.20546 | -1 ft | 18 kts | 38° |
| 2026-05-05 17:10 | 36.88968 | -76.20428 | -1 ft | 21 kts | 35° |
| 2026-05-05 17:10 | 36.89088 | -76.20313 | 2 ft | 22 kts | 34° |
| 2026-05-05 17:10 | 36.89215 | -76.20194 | 2 ft | 23 kts | 40° |
| 2026-05-05 17:11 | 36.89344 | -76.20076 | 3 ft | 23 kts | 31° |
| 2026-05-05 17:11 | 36.89451 | -76.19933 | 1 ft | 22 kts | 57° |
| 2026-05-05 17:11 | 36.89521 | -76.19864 | 1 ft | 0 kts | 4° |
| 2026-05-05 17:12 | 36.89540 | -76.19870 | 1 ft | 10 kts | 343° |
| 2026-05-05 17:12 | 36.89657 | -76.19847 | 0 ft | 23 kts | 5° |
| 2026-05-05 17:12 | 36.89852 | -76.19818 | -3 ft | 35 kts | 36° |
| 2026-05-05 17:12 | 36.90075 | -76.19606 | -3 ft | 45 kts | 35° |
| 2026-05-05 17:13 | 36.90367 | -76.19391 | -3 ft | 52 kts | 30° |
| 2026-05-05 17:13 | 36.90588 | -76.19159 | -4 ft | 20 kts | 50° |
| 2026-05-05 17:13 | 36.90571 | -76.19017 | -5 ft | 6 kts | 137° |
| 2026-05-05 17:13 | 36.90570 | -76.19016 | -5 ft | 0 kts | 138° |
| 2026-05-05 17:15 | 36.90535 | -76.18985 | -6 ft | 9 kts | 184° |
| 2026-05-05 17:15 | 36.90486 | -76.19009 | -6 ft | 7 kts | 221° |
| 2026-05-05 17:15 | 36.90368 | -76.19118 | -4 ft | 50 kts | 215° |
| 2026-05-05 17:15 | 36.89916 | -76.19543 | 47 ft | 105 kts | 216° |
| 2026-05-05 17:16 | 36.89306 | -76.20055 | 574 ft | 107 kts | 209° |
| 2026-05-05 17:16 | 36.88627 | -76.20619 | 901 ft | 126 kts | 216° |
| 2026-05-05 17:16 | 36.87857 | -76.21337 | 998 ft | 152 kts | 215° |
| 2026-05-05 17:16 | 36.87024 | -76.22101 | 1668 ft | 147 kts | 216° |
| 2026-05-05 17:17 | 36.86186 | -76.22869 | 2240 ft | 150 kts | 211° |
| 2026-05-05 17:17 | 36.85161 | -76.23200 | 2787 ft | 157 kts | 189° |
| 2026-05-05 17:17 | 36.84089 | -76.23462 | 3418 ft | 156 kts | 196° |
| 2026-05-05 17:17 | 36.83036 | -76.23792 | 4032 ft | 156 kts | 197° |
| 2026-05-05 17:18 | 36.81985 | -76.24128 | 4625 ft | 157 kts | 198° |
| 2026-05-05 17:18 | 36.80932 | -76.24466 | 5218 ft | 155 kts | 198° |
| 2026-05-05 17:18 | 36.79869 | -76.24808 | 5744 ft | 158 kts | 198° |
| 2026-05-05 17:18 | 36.78817 | -76.25143 | 6310 ft | 158 kts | 198° |
| 2026-05-05 17:19 | 36.77738 | -76.25483 | 6845 ft | 161 kts | 197° |
| 2026-05-05 17:19 | 36.76648 | -76.25831 | 7360 ft | 163 kts | 198° |
| 2026-05-05 17:19 | 36.75540 | -76.26181 | 7882 ft | 164 kts | 198° |
| 2026-05-05 17:19 | 36.74436 | -76.26516 | 8394 ft | 166 kts | 195° |
| 2026-05-05 17:20 | 36.73291 | -76.26769 | 8898 ft | 168 kts | 194° |
| 2026-05-05 17:20 | 36.72135 | -76.27022 | 9426 ft | 169 kts | 194° |
| 2026-05-05 17:20 | 36.70966 | -76.27281 | 9943 ft | 171 kts | 194° |
| 2026-05-05 17:20 | 36.69802 | -76.27544 | 10421 ft | 173 kts | 194° |
| 2026-05-05 17:21 | 36.68613 | -76.27812 | 10879 ft | 175 kts | 194° |
| 2026-05-05 17:21 | 36.67406 | -76.28083 | 11345 ft | 177 kts | 194° |
| 2026-05-05 17:21 | 36.66189 | -76.28355 | 11840 ft | 179 kts | 195° |
| 2026-05-05 17:22 | 36.63711 | -76.28918 | 12793 ft | 182 kts | 195° |
| 2026-05-05 17:22 | 36.62458 | -76.29192 | 13273 ft | 183 kts | 196° |
| 2026-05-05 17:22 | 36.61210 | -76.29470 | 13733 ft | 185 kts | 196° |
| 2026-05-05 17:22 | 36.59931 | -76.29754 | 14180 ft | 186 kts | 197° |
| 2026-05-05 17:23 | 36.58647 | -76.30044 | 14564 ft | 189 kts | 197° |
| 2026-05-05 17:23 | 36.57345 | -76.30331 | 14981 ft | 190 kts | 197° |
| 2026-05-05 17:23 | 36.56036 | -76.30627 | 15392 ft | 192 kts | 197° |
| 2026-05-05 17:23 | 36.54723 | -76.30918 | 15773 ft | 195 kts | 197° |
| 2026-05-05 17:24 | 36.53381 | -76.31220 | 16166 ft | 197 kts | 197° |
| 2026-05-05 17:24 | 36.52027 | -76.31550 | 16551 ft | 196 kts | 202° |
| 2026-05-05 17:24 | 36.50796 | -76.32231 | 16926 ft | 193 kts | 214° |
| 2026-05-05 17:24 | 36.49609 | -76.32993 | 17312 ft | 196 kts | 212° |
| 2026-05-05 17:25 | 36.48381 | -76.33754 | 17691 ft | 198 kts | 213° |
| 2026-05-05 17:25 | 36.47559 | -76.34270 | 17941 ft | 199 kts | 213° |
| 2026-05-05 17:25 | 36.45910 | -76.35309 | 18431 ft | 201 kts | 213° |
| 2026-05-05 17:25 | 36.44653 | -76.36097 | 18736 ft | 203 kts | 213° |
| 2026-05-05 17:26 | 36.43383 | -76.36900 | 19058 ft | 204 kts | 213° |
| 2026-05-05 17:26 | 36.42114 | -76.37697 | 19374 ft | 206 kts | 213° |
| 2026-05-05 17:26 | 36.40830 | -76.38507 | 19689 ft | 207 kts | 213° |
| 2026-05-05 17:26 | 36.39552 | -76.39312 | 20002 ft | 209 kts | 213° |
| 2026-05-05 17:27 | 36.38245 | -76.40136 | 20312 ft | 211 kts | 213° |
| 2026-05-05 17:27 | 36.36927 | -76.40966 | 20626 ft | 212 kts | 213° |
| 2026-05-05 17:27 | 36.35615 | -76.41791 | 20940 ft | 214 kts | 213° |
| 2026-05-05 17:27 | 36.34281 | -76.42628 | 21272 ft | 214 kts | 212° |
| 2026-05-05 17:28 | 36.32944 | -76.43466 | 21616 ft | 214 kts | 213° |
| 2026-05-05 17:28 | 36.31612 | -76.44301 | 21957 ft | 215 kts | 213° |
| 2026-05-05 17:28 | 36.30294 | -76.45129 | 22295 ft | 215 kts | 213° |
| 2026-05-05 17:28 | 36.28952 | -76.45969 | 22627 ft | 215 kts | 213° |
| 2026-05-05 17:29 | 36.27613 | -76.46807 | 22959 ft | 215 kts | 213° |
| 2026-05-05 17:29 | 36.26270 | -76.47652 | 23306 ft | 216 kts | 213° |
| 2026-05-05 17:29 | 36.24944 | -76.48481 | 23646 ft | 216 kts | 213° |
| 2026-05-05 17:29 | 36.23604 | -76.49323 | 23941 ft | 216 kts | 213° |
| 2026-05-05 17:30 | 36.22256 | -76.50166 | 24221 ft | 216 kts | 213° |
| 2026-05-05 17:30 | 36.20908 | -76.51010 | 24485 ft | 218 kts | 213° |
| 2026-05-05 17:30 | 36.19564 | -76.51851 | 24747 ft | 219 kts | 213° |
| 2026-05-05 17:30 | 36.18202 | -76.52703 | 25046 ft | 219 kts | 213° |
| 2026-05-05 17:31 | 36.16831 | -76.53558 | 25347 ft | 220 kts | 213° |
| 2026-05-05 17:31 | 36.15463 | -76.54415 | 25642 ft | 220 kts | 213° |
| 2026-05-05 17:31 | 36.14108 | -76.55258 | 25933 ft | 221 kts | 213° |
| 2026-05-05 17:31 | 36.12735 | -76.56116 | 26234 ft | 221 kts | 214° |
| 2026-05-05 17:32 | 36.11357 | -76.56975 | 26532 ft | 221 kts | 214° |
| 2026-05-05 17:32 | 36.09977 | -76.57835 | 26832 ft | 221 kts | 214° |
| 2026-05-05 17:32 | 36.08618 | -76.58683 | 27129 ft | 222 kts | 214° |
| 2026-05-05 17:32 | 36.07236 | -76.59541 | 27439 ft | 222 kts | 214° |
| 2026-05-05 17:33 | 36.05855 | -76.60406 | 27746 ft | 222 kts | 214° |
| 2026-05-05 17:33 | 36.04475 | -76.61266 | 28043 ft | 222 kts | 214° |
| 2026-05-05 17:33 | 36.03089 | -76.62128 | 28344 ft | 223 kts | 214° |
| 2026-05-05 17:33 | 36.01725 | -76.62979 | 28635 ft | 223 kts | 214° |
| 2026-05-05 17:34 | 36.00336 | -76.63842 | 28932 ft | 223 kts | 215° |
| 2026-05-05 17:34 | 35.98945 | -76.64710 | 29226 ft | 222 kts | 215° |
| 2026-05-05 17:34 | 35.97565 | -76.65565 | 29554 ft | 221 kts | 215° |
| 2026-05-05 17:34 | 35.96188 | -76.66421 | 29845 ft | 221 kts | 215° |
| 2026-05-05 17:35 | 35.94826 | -76.67269 | 30055 ft | 225 kts | 215° |
| 2026-05-05 17:35 | 35.93391 | -76.68167 | 30062 ft | 236 kts | 215° |
| 2026-05-05 17:35 | 35.91889 | -76.69099 | 30069 ft | 246 kts | 214° |
| 2026-05-05 17:35 | 35.90415 | -76.70189 | 30068 ft | 246 kts | 226° |
| 2026-05-05 17:36 | 35.89200 | -76.71636 | 30053 ft | 249 kts | 233° |
| 2026-05-05 17:36 | 35.87958 | -76.73177 | 30056 ft | 256 kts | 232° |
| 2026-05-05 17:36 | 35.86678 | -76.74739 | 30051 ft | 262 kts | 232° |
| 2026-05-05 17:36 | 35.85373 | -76.76351 | 30050 ft | 268 kts | 232° |
| 2026-05-05 17:37 | 35.84055 | -76.77984 | 30053 ft | 275 kts | 232° |
| 2026-05-05 17:37 | 35.83135 | -76.79118 | 30056 ft | 278 kts | 231° |
| 2026-05-05 17:37 | 35.81290 | -76.81389 | 30044 ft | 285 kts | 231° |
| 2026-05-05 17:37 | 35.79872 | -76.83135 | 30050 ft | 289 kts | 231° |
| 2026-05-05 17:38 | 35.78459 | -76.84876 | 30045 ft | 292 kts | 231° |
| 2026-05-05 17:38 | 35.77005 | -76.86666 | 30047 ft | 295 kts | 231° |
| 2026-05-05 17:38 | 35.75543 | -76.88460 | 30043 ft | 298 kts | 231° |
| 2026-05-05 17:39 | 35.72594 | -76.92083 | 30053 ft | 303 kts | 231° |
| 2026-05-05 17:39 | 35.69573 | -76.95788 | 30051 ft | 306 kts | 231° |
| 2026-05-05 17:40 | 35.66570 | -76.99463 | 30058 ft | 305 kts | 231° |
| 2026-05-05 17:40 | 35.63563 | -77.03150 | 30056 ft | 304 kts | 231° |
| 2026-05-05 17:41 | 35.60564 | -77.06813 | 30056 ft | 303 kts | 231° |
| 2026-05-05 17:41 | 35.57587 | -77.10454 | 30055 ft | 303 kts | 231° |
| 2026-05-05 17:42 | 35.54592 | -77.14108 | 30051 ft | 302 kts | 231° |
| 2026-05-05 17:42 | 35.51623 | -77.17728 | 30049 ft | 302 kts | 231° |
| 2026-05-05 17:43 | 35.48639 | -77.21358 | 30042 ft | 301 kts | 231° |
| 2026-05-05 17:43 | 35.45663 | -77.24977 | 30044 ft | 305 kts | 231° |
| 2026-05-05 17:44 | 35.42623 | -77.28670 | 30037 ft | 309 kts | 231° |
| 2026-05-05 17:44 | 35.39575 | -77.32368 | 30052 ft | 308 kts | 231° |
| 2026-05-05 17:45 | 35.36540 | -77.36048 | 30054 ft | 305 kts | 231° |
| 2026-05-05 17:45 | 35.33518 | -77.39707 | 30052 ft | 305 kts | 231° |
| 2026-05-05 17:46 | 35.30502 | -77.43357 | 30057 ft | 308 kts | 231° |
| 2026-05-05 17:46 | 35.27440 | -77.47052 | 30061 ft | 310 kts | 231° |
| 2026-05-05 17:47 | 35.24381 | -77.50743 | 30062 ft | 308 kts | 231° |
| 2026-05-05 17:47 | 35.21333 | -77.54413 | 30059 ft | 306 kts | 231° |
| 2026-05-05 17:48 | 35.18325 | -77.58036 | 30054 ft | 305 kts | 231° |
| 2026-05-05 17:48 | 35.15285 | -77.61696 | 30051 ft | 307 kts | 231° |
| 2026-05-05 17:49 | 35.12222 | -77.65374 | 30056 ft | 309 kts | 231° |
| 2026-05-05 17:49 | 35.09166 | -77.69043 | 30052 ft | 309 kts | 231° |
| 2026-05-05 17:50 | 35.06095 | -77.72724 | 30053 ft | 309 kts | 231° |
| 2026-05-05 17:50 | 35.03023 | -77.76401 | 30057 ft | 309 kts | 231° |
| 2026-05-05 17:51 | 34.99968 | -77.80053 | 30059 ft | 308 kts | 231° |
| 2026-05-05 17:51 | 34.96899 | -77.83717 | 30052 ft | 308 kts | 231° |
| 2026-05-05 17:52 | 34.93855 | -77.87352 | 30046 ft | 308 kts | 231° |
| 2026-05-05 17:52 | 34.90791 | -77.91004 | 30046 ft | 307 kts | 231° |
| 2026-05-05 17:53 | 34.87744 | -77.94634 | 30049 ft | 307 kts | 232° |
| 2026-05-05 17:53 | 34.84703 | -77.98249 | 30048 ft | 306 kts | 232° |
| 2026-05-05 17:54 | 34.82158 | -78.01276 | 30048 ft | 306 kts | 232° |
| 2026-05-05 17:54 | 34.79112 | -78.04888 | 30050 ft | 306 kts | 232° |
| 2026-05-05 17:55 | 34.76056 | -78.08511 | 30050 ft | 306 kts | 232° |
| 2026-05-05 17:55 | 34.72996 | -78.12134 | 30049 ft | 306 kts | 232° |
| 2026-05-05 17:56 | 34.69957 | -78.15731 | 30044 ft | 306 kts | 232° |
| 2026-05-05 17:56 | 34.66897 | -78.19349 | 30032 ft | 306 kts | 232° |
| 2026-05-05 17:57 | 34.63831 | -78.22973 | 30047 ft | 309 kts | 232° |
| 2026-05-05 17:57 | 34.60737 | -78.26619 | 30040 ft | 312 kts | 232° |
| 2026-05-05 17:58 | 34.57630 | -78.30275 | 30053 ft | 309 kts | 232° |
| 2026-05-05 17:58 | 34.54558 | -78.33890 | 30061 ft | 308 kts | 232° |
| 2026-05-05 17:59 | 34.51482 | -78.37504 | 30048 ft | 307 kts | 232° |
| 2026-05-05 17:59 | 34.48395 | -78.41131 | 30053 ft | 310 kts | 232° |
| 2026-05-05 18:00 | 34.45295 | -78.44769 | 30052 ft | 312 kts | 232° |
| 2026-05-05 18:00 | 34.42180 | -78.48415 | 30048 ft | 309 kts | 233° |
| 2026-05-05 18:01 | 34.39092 | -78.52030 | 30122 ft | 307 kts | 233° |
| 2026-05-05 18:01 | 34.36020 | -78.55626 | 30126 ft | 310 kts | 233° |
| 2026-05-05 18:02 | 34.32890 | -78.59277 | 30133 ft | 313 kts | 233° |
| 2026-05-05 18:02 | 34.29834 | -78.62945 | 30135 ft | 309 kts | 234° |
| 2026-05-05 18:03 | 34.26802 | -78.66589 | 30129 ft | 307 kts | 234° |
| 2026-05-05 18:03 | 34.23767 | -78.70232 | 30131 ft | 308 kts | 234° |
| 2026-05-05 18:04 | 34.20700 | -78.73909 | 30130 ft | 310 kts | 234° |
| 2026-05-05 18:04 | 34.17645 | -78.77569 | 30117 ft | 310 kts | 234° |
| 2026-05-05 18:05 | 34.14584 | -78.81227 | 30113 ft | 309 kts | 234° |
| 2026-05-05 18:05 | 34.11527 | -78.84883 | 30115 ft | 309 kts | 234° |
| 2026-05-05 18:06 | 34.08489 | -78.88508 | 30116 ft | 308 kts | 234° |
| 2026-05-05 18:06 | 34.05433 | -78.92147 | 30115 ft | 308 kts | 234° |
| 2026-05-05 18:07 | 34.02387 | -78.95777 | 30118 ft | 307 kts | 234° |
| 2026-05-05 18:07 | 33.99359 | -78.99379 | 30115 ft | 307 kts | 234° |
| 2026-05-05 18:08 | 33.96318 | -79.02994 | 30112 ft | 307 kts | 234° |
| 2026-05-05 18:08 | 33.93264 | -79.06621 | 30116 ft | 307 kts | 235° |
| 2026-05-05 18:09 | 33.90238 | -79.10207 | 30111 ft | 304 kts | 235° |
| 2026-05-05 18:09 | 33.87229 | -79.13773 | 30108 ft | 302 kts | 235° |
| 2026-05-05 18:10 | 33.84232 | -79.17321 | 30115 ft | 305 kts | 235° |
| 2026-05-05 18:10 | 33.81195 | -79.20910 | 30117 ft | 307 kts | 235° |
| 2026-05-05 18:11 | 33.77995 | -79.24366 | 30115 ft | 316 kts | 224° |
| 2026-05-05 18:11 | 33.74258 | -79.27179 | 30118 ft | 315 kts | 223° |
| 2026-05-05 18:12 | 33.70557 | -79.29992 | 30123 ft | 318 kts | 223° |
| 2026-05-05 18:12 | 33.66791 | -79.32832 | 30123 ft | 320 kts | 223° |
| 2026-05-05 18:13 | 33.63018 | -79.35675 | 30128 ft | 318 kts | 223° |
| 2026-05-05 18:13 | 33.59300 | -79.38476 | 30128 ft | 316 kts | 223° |
| 2026-05-05 18:14 | 33.55576 | -79.41280 | 30123 ft | 316 kts | 223° |
| 2026-05-05 18:14 | 33.51862 | -79.44070 | 30127 ft | 315 kts | 223° |
| 2026-05-05 18:15 | 33.48158 | -79.46849 | 30125 ft | 312 kts | 224° |
| 2026-05-05 18:15 | 33.44472 | -79.49626 | 30128 ft | 315 kts | 223° |
| 2026-05-05 18:16 | 33.40734 | -79.52431 | 30130 ft | 317 kts | 223° |
| 2026-05-05 18:16 | 33.37013 | -79.55220 | 30131 ft | 315 kts | 223° |
| 2026-05-05 18:17 | 33.33320 | -79.57995 | 30125 ft | 313 kts | 224° |
| 2026-05-05 18:17 | 33.29649 | -79.60792 | 30122 ft | 312 kts | 224° |
| 2026-05-05 18:18 | 33.25978 | -79.63573 | 30124 ft | 315 kts | 224° |
| 2026-05-05 18:18 | 33.22371 | -79.66496 | 30119 ft | 305 kts | 233° |
| 2026-05-05 18:18 | 33.20931 | -79.68266 | 30119 ft | 296 kts | 242° |
| 2026-05-05 18:19 | 33.19767 | -79.70254 | 30111 ft | 287 kts | 251° |
| 2026-05-05 18:19 | 33.18857 | -79.72361 | 30111 ft | 283 kts | 255° |
| 2026-05-05 18:19 | 33.17965 | -79.74461 | 30114 ft | 283 kts | 254° |
| 2026-05-05 18:19 | 33.17076 | -79.76523 | 30109 ft | 282 kts | 254° |
| 2026-05-05 18:20 | 33.16188 | -79.78611 | 30104 ft | 281 kts | 254° |
| 2026-05-05 18:20 | 33.15302 | -79.80695 | 30110 ft | 280 kts | 254° |
| 2026-05-05 18:20 | 33.14419 | -79.82762 | 30108 ft | 279 kts | 254° |
| 2026-05-05 18:20 | 33.13538 | -79.84830 | 30106 ft | 277 kts | 254° |
| 2026-05-05 18:21 | 33.12663 | -79.86877 | 30105 ft | 276 kts | 254° |
| 2026-05-05 18:21 | 33.11800 | -79.88894 | 30101 ft | 276 kts | 254° |
| 2026-05-05 18:21 | 33.10929 | -79.90938 | 30101 ft | 277 kts | 254° |
| 2026-05-05 18:21 | 33.10047 | -79.92999 | 30102 ft | 278 kts | 254° |
| 2026-05-05 18:22 | 33.09163 | -79.95061 | 30103 ft | 279 kts | 254° |
| 2026-05-05 18:22 | 33.08278 | -79.97131 | 30104 ft | 280 kts | 254° |
| 2026-05-05 18:22 | 33.07400 | -79.99177 | 30105 ft | 281 kts | 254° |
| 2026-05-05 18:22 | 33.06511 | -80.01250 | 30106 ft | 281 kts | 254° |
| 2026-05-05 18:23 | 33.05611 | -80.03316 | 30103 ft | 281 kts | 252° |
| 2026-05-05 18:23 | 33.04457 | -80.05250 | 30106 ft | 291 kts | 242° |
| 2026-05-05 18:23 | 33.03142 | -80.07078 | 30109 ft | 290 kts | 242° |
| 2026-05-05 18:23 | 33.01845 | -80.08891 | 29865 ft | 282 kts | 242° |
| 2026-05-05 18:24 | 33.00566 | -80.10681 | 29042 ft | 284 kts | 241° |
| 2026-05-05 18:24 | 32.99318 | -80.12463 | 28261 ft | 283 kts | 241° |
| 2026-05-05 18:24 | 32.98069 | -80.14283 | 27494 ft | 282 kts | 241° |
| 2026-05-05 18:24 | 32.96849 | -80.16111 | 26746 ft | 282 kts | 241° |
| 2026-05-05 18:25 | 32.95644 | -80.17959 | 26011 ft | 283 kts | 242° |
| 2026-05-05 18:25 | 32.94849 | -80.19195 | 25537 ft | 283 kts | 242° |
| 2026-05-05 18:25 | 32.93257 | -80.21717 | 24610 ft | 285 kts | 242° |
| 2026-05-05 18:25 | 32.92094 | -80.23613 | 23942 ft | 287 kts | 242° |
| 2026-05-05 18:26 | 32.90929 | -80.25557 | 23192 ft | 288 kts | 241° |
| 2026-05-05 18:26 | 32.89778 | -80.27525 | 22417 ft | 289 kts | 242° |
| 2026-05-05 18:26 | 32.88658 | -80.29487 | 21649 ft | 291 kts | 242° |
| 2026-05-05 18:26 | 32.87535 | -80.31501 | 20894 ft | 293 kts | 242° |
| 2026-05-05 18:27 | 32.86422 | -80.33551 | 20168 ft | 295 kts | 242° |
| 2026-05-05 18:27 | 32.85325 | -80.35625 | 19457 ft | 296 kts | 242° |
| 2026-05-05 18:27 | 32.84244 | -80.37718 | 18763 ft | 298 kts | 242° |
| 2026-05-05 18:27 | 32.83187 | -80.39816 | 18036 ft | 300 kts | 242° |
| 2026-05-05 18:28 | 32.81050 | -80.44093 | 16499 ft | 301 kts | 235° |
| 2026-05-05 18:28 | 32.79391 | -80.45631 | 15724 ft | 306 kts | 206° |
| 2026-05-05 18:28 | 32.77325 | -80.45990 | 14975 ft | 307 kts | 177° |
| 2026-05-05 18:29 | 32.75341 | -80.45084 | 14248 ft | 310 kts | 148° |
| 2026-05-05 18:29 | 32.73972 | -80.43122 | 13475 ft | 312 kts | 117° |
| 2026-05-05 18:29 | 32.73581 | -80.40606 | 12676 ft | 312 kts | 88° |
| 2026-05-05 18:29 | 32.74262 | -80.38197 | 11897 ft | 307 kts | 58° |
| 2026-05-05 18:30 | 32.75705 | -80.36371 | 11157 ft | 303 kts | 40° |
| 2026-05-05 18:30 | 32.77318 | -80.34825 | 10678 ft | 300 kts | 38° |
| 2026-05-05 18:30 | 32.78986 | -80.33300 | 10212 ft | 304 kts | 37° |
| 2026-05-05 18:30 | 32.80668 | -80.31792 | 9715 ft | 300 kts | 37° |
| 2026-05-05 18:31 | 32.82335 | -80.30321 | 9201 ft | 296 kts | 37° |
| 2026-05-05 18:31 | 32.83984 | -80.28881 | 8692 ft | 292 kts | 36° |
| 2026-05-05 18:31 | 32.85796 | -80.27781 | 8181 ft | 294 kts | 21° |
| 2026-05-05 18:31 | 32.87716 | -80.26979 | 7690 ft | 289 kts | 19° |
| 2026-05-05 18:32 | 32.89600 | -80.26247 | 7209 ft | 287 kts | 18° |
| 2026-05-05 18:32 | 32.91497 | -80.25526 | 6728 ft | 283 kts | 18° |
| 2026-05-05 18:32 | 32.93385 | -80.24818 | 6234 ft | 284 kts | 18° |
| 2026-05-05 18:32 | 32.95258 | -80.24120 | 5732 ft | 279 kts | 18° |
| 2026-05-05 18:33 | 32.97116 | -80.23434 | 5232 ft | 279 kts | 18° |
| 2026-05-05 18:33 | 32.98929 | -80.22773 | 4741 ft | 273 kts | 18° |
| 2026-05-05 18:33 | 33.00746 | -80.22111 | 4233 ft | 273 kts | 18° |
| 2026-05-05 18:33 | 33.02559 | -80.21464 | 3742 ft | 269 kts | 17° |
| 2026-05-05 18:34 | 33.04375 | -80.20896 | 3240 ft | 271 kts | 15° |
| 2026-05-05 18:34 | 33.06193 | -80.20363 | 2981 ft | 262 kts | 14° |
| 2026-05-05 18:34 | 33.07968 | -80.19848 | 2975 ft | 268 kts | 14° |
| 2026-05-05 18:34 | 33.09699 | -80.19355 | 2971 ft | 251 kts | 14° |
| 2026-05-05 18:35 | 33.11469 | -80.18845 | 2977 ft | 266 kts | 14° |
| 2026-05-05 18:35 | 33.13281 | -80.18319 | 2977 ft | 269 kts | 14° |
| 2026-05-05 18:35 | 33.15098 | -80.17788 | 2996 ft | 267 kts | 15° |
| 2026-05-05 18:35 | 33.16811 | -80.17002 | 2985 ft | 269 kts | 19° |
| 2026-05-05 18:36 | 33.18666 | -80.16969 | 2983 ft | 269 kts | 343° |
| 2026-05-05 18:36 | 33.20193 | -80.18216 | 2984 ft | 269 kts | 307° |
| 2026-05-05 18:36 | 33.20830 | -80.20269 | 2985 ft | 263 kts | 269° |
| 2026-05-05 18:36 | 33.20342 | -80.22291 | 2970 ft | 252 kts | 233° |
| 2026-05-05 18:37 | 33.18988 | -80.23478 | 2968 ft | 246 kts | 197° |
| 2026-05-05 18:37 | 33.17294 | -80.23551 | 2971 ft | 246 kts | 171° |
| 2026-05-05 18:37 | 33.15646 | -80.23027 | 2977 ft | 245 kts | 161° |
| 2026-05-05 18:37 | 33.14100 | -80.22190 | 2975 ft | 243 kts | 151° |
| 2026-05-05 18:38 | 33.12665 | -80.21097 | 2978 ft | 243 kts | 147° |
| 2026-05-05 18:38 | 33.11268 | -80.20008 | 2980 ft | 243 kts | 149° |
| 2026-05-05 18:38 | 33.09820 | -80.18929 | 2976 ft | 247 kts | 149° |
| 2026-05-05 18:38 | 33.08397 | -80.17820 | 2981 ft | 235 kts | 147° |
| 2026-05-05 18:39 | 33.07104 | -80.16837 | 2973 ft | 211 kts | 149° |
| 2026-05-05 18:39 | 33.05881 | -80.15918 | 2971 ft | 207 kts | 149° |
| 2026-05-05 18:39 | 33.04669 | -80.14977 | 2972 ft | 209 kts | 149° |
| 2026-05-05 18:39 | 33.03409 | -80.14038 | 2817 ft | 215 kts | 149° |
| 2026-05-05 18:40 | 33.02178 | -80.13074 | 2555 ft | 204 kts | 148° |
| 2026-05-05 18:40 | 33.01054 | -80.12229 | 2301 ft | 184 kts | 149° |
| 2026-05-05 18:40 | 33.00351 | -80.11701 | 2151 ft | 165 kts | 149° |
| 2026-05-05 18:40 | 32.99401 | -80.10970 | 1931 ft | 175 kts | 150° |
| 2026-05-05 18:41 | 32.98371 | -80.10187 | 1706 ft | 167 kts | 151° |
| 2026-05-05 18:41 | 32.97419 | -80.09459 | 1482 ft | 163 kts | 151° |
| 2026-05-05 18:41 | 32.96457 | -80.08733 | 1265 ft | 157 kts | 148° |
| 2026-05-05 18:41 | 32.95607 | -80.08075 | 1066 ft | 133 kts | 150° |
| 2026-05-05 18:42 | 32.94892 | -80.07541 | 908 ft | 109 kts | 149° |
| 2026-05-05 18:42 | 32.94347 | -80.07122 | 777 ft | 79 kts | 151° |
| 2026-05-05 18:42 | 32.93927 | -80.06798 | 684 ft | 69 kts | 152° |
| 2026-05-05 18:42 | 32.93527 | -80.06501 | 601 ft | 68 kts | 147° |
| 2026-05-05 18:43 | 32.93107 | -80.06176 | 517 ft | 75 kts | 154° |
| 2026-05-05 18:43 | 32.92630 | -80.05813 | 406 ft | 87 kts | 143° |
| 2026-05-05 18:43 | 32.92106 | -80.05420 | 289 ft | 94 kts | 149° |
| 2026-05-05 18:43 | 32.91541 | -80.04984 | 159 ft | 97 kts | 149° |
| 2026-05-05 18:44 | 32.91024 | -80.04597 | 50 ft | 73 kts | 149° |
| 2026-05-05 18:44 | 32.90653 | -80.04341 | 33 ft | 46 kts | 144° |
| 2026-05-05 18:44 | 32.90506 | -80.04225 | 33 ft | 22 kts | 155° |
| 2026-05-05 18:44 | 32.90425 | -80.04131 | 33 ft | 12 kts | 104° |
| 2026-05-05 18:45 | 32.90441 | -80.04046 | 35 ft | 10 kts | 54° |
| 2026-05-05 18:45 | 32.90474 | -80.03986 | 35 ft | 0 kts | 30° |
| 2026-05-05 18:45 | 32.90475 | -80.03985 | 35 ft | 1 kts | 38° |
| 2026-05-05 18:45 | 32.90478 | -80.03981 | 35 ft | 0 kts | 55° |
| 2026-05-05 18:46 | 32.90496 | -80.03935 | 35 ft | 8 kts | 141° |
| 2026-05-05 18:46 | 32.90450 | -80.03884 | 35 ft | 11 kts | 140° |
| 2026-05-05 18:47 | 32.90379 | -80.03811 | 35 ft | 15 kts | 137° |
| 2026-05-05 18:47 | 32.90300 | -80.03723 | 35 ft | 17 kts | 139° |
| 2026-05-05 18:47 | 32.90202 | -80.03626 | 37 ft | 22 kts | 142° |
| 2026-05-05 18:47 | 32.90087 | -80.03504 | 35 ft | 4 kts | 129° |
| 2026-05-05 18:48 | 32.90080 | -80.03491 | 35 ft | 7 kts | 129° |
| 2026-05-05 18:48 | 32.90037 | -80.03419 | 35 ft | 10 kts | 112° |
| 2026-05-05 18:48 | 32.90020 | -80.03354 | 35 ft | 11 kts | 93° |
| 2026-05-05 18:48 | 32.90020 | -80.03324 | 35 ft | 0 kts | 87° |